Impacts METAR Board
IDs:

KFLL - Ft Lauderdale-Hollyw, FL, US

Updated at: 1600 UTC 24 Sep 2018
Potential Impact None Slight Moderate High
Time 24/04Z 24/05Z 24/06Z 24/07Z 24/08Z 24/09Z 24/10Z 24/11Z 24/12Z 24/13Z 24/14Z 24/15Z 24/16Z
Temp83 82 81 82 81 80 80 81 82 84 85 87 88
Dewpt77 79 77 76 77 76 77 78 77 77 76 74 78
Altim29.98 29.97 29.96 29.95 29.95 29.95 29.96 29.97 29.99 30.00 30.01 30.03 30.03
VIS10 10 10 10 10 10 10 10 10 10 10 10 10
CIG-- 25 60 60 35 35 -- 23 -- -- -- -- --
CoverSCTBKNBKNBKNBKNBKNSCTBKNSCTSCTFEWFEWSCT
FltCatVFRMVFRVFRVFRVFRVFRVFRMVFRVFRVFRVFRVFRVFR
WX-------------RA------------
WDir90909070010040709010060100
WSpd9 9 5 4 0 3 0 3 4 7 9 6 8
WGst-- -- -- -- -- -- -- -- -- -- -- -- --
Raw hourly METARs
KFLL 240353Z 09009KT 10SM SCT027 SCT039 SCT060 SCT250 28/25 A2998 RMK AO2 SLP150 T02830250
KFLL 240502Z 09009KT 10SM BKN025 BKN035 BKN048 28/26 A2997 RMK AO2 RAE0455 P0000 T02780261
KFLL 240553Z 09005KT 10SM SCT025 SCT032 BKN060 27/25 A2996 RMK AO2 RAE0455 SLP146 P0000 60000 T02720250 10283 20272 58004
KFLL 240653Z 07004KT 10SM SCT025 SCT032 BKN060 28/24 A2995 RMK AO2 SLP143 T02780244
KFLL 240753Z 00000KT 10SM FEW025 BKN035 27/25 A2995 RMK AO2 SLP140 T02720250
KFLL 240853Z 01003KT 10SM FEW023 BKN035 27/24 A2995 RMK AO2 SLP141 T02670244 55005
KFLL 240953Z 00000KT 10SM -RA FEW025 SCT029 SCT045 27/25 A2996 RMK AO2 RAB49 SLP144 P0000 T02670250
KFLL 241100Z 04003KT 10SM BKN023 BKN250 27/26 A2997 RMK AO2 T02720256
KFLL 241153Z 07004KT 10SM SCT023 SCT250 28/25 A2999 RMK AO2 SLP154 60001 70001 T02780250 10278 20261 53013
KFLL 241253Z 09007KT 10SM SCT027 29/25 A3000 RMK AO2 SLP159 T02890250
KFLL 241353Z 10009KT 10SM FEW027 FEW080 29/24 A3001 RMK AO2 SLP163 T02940244
KFLL 241453Z 06006KT 10SM FEW028 FEW100 31/23 A3003 RMK AO2 SLP167 T03060233 51013
KFLL 241553Z 10008KT 10SM SCT024 31/26 A3003 RMK AO2 SLP168 T03110256



Page loaded:  16:59 UTC  |   09:59 AM Pacific  |   10:59 AM Mountain  |   11:59 AM Central  |   12:59 PM Eastern

 

ADVISORIES

FORECASTS

FORECASTS

OBSERVATIONS

USER TOOLS

ABOUT US